Time;durP1;ratioP1;P1;durP2;ratioP2;P2;SDS_P1;SDS_P2;PMS_P1;PMS_P2;Temp;Humidity;BMP_temperature;BMP_pressure;BME280_temperature;BME280_humidity;BME280_pressure;Samples;Min_cycle;Max_cycle;Signal;HPM_P1;HPM_P2
2022/01/12 00:00:55;;;;;;;;;;;2.50;99.90;;;;;;5028587;28;20004;-75
2022/01/12 00:03:20;;;;;;;;;;;2.50;99.90;;;;;;5028595;28;20277;-75
2022/01/12 00:05:46;;;;;;;;;;;2.50;99.90;;;;;;5028415;28;19916;-75
2022/01/12 00:08:12;;;;;;;;;;;2.60;99.90;;;;;;5010920;28;20012;-74
2022/01/12 00:10:38;;;;;;;;;;;2.60;99.90;;;;;;5028266;28;19910;-76
2022/01/12 00:13:04;;;;;;;;;;;2.60;99.90;;;;;;5028296;28;20362;-75
2022/01/12 00:15:30;;;;;;;;;;;2.60;99.90;;;;;;5010292;28;19976;-76
2022/01/12 00:17:56;;;;;;;;;;;2.60;99.90;;;;;;5010509;28;19917;-74
2022/01/12 00:20:21;;;;;;;;;;;2.60;99.90;;;;;;5028012;28;19920;-76
2022/01/12 00:22:47;;;;;;;;;;;2.60;99.90;;;;;;5028159;28;19909;-75
2022/01/12 00:33:20;;;;;;;;;;;2.60;99.90;;;;;;5027929;28;19921;-75
2022/01/12 00:35:50;;;;;;;;;;;2.60;99.90;;;;;;5027703;28;19988;-75
2022/01/12 00:38:17;;;;;;;;;;;2.60;99.90;;;;;;5027985;28;19909;-75
2022/01/12 00:40:44;;;;;;;;;;;2.60;99.90;;;;;;5027601;28;19982;-75
2022/01/12 00:43:11;;;;;;;;;;;2.50;99.90;;;;;;5027564;28;19932;-75
2022/01/12 00:45:41;;;;;;;;;;;2.50;99.90;;;;;;5009802;28;19973;-75
2022/01/12 00:48:07;;;;;;;;;;;2.50;99.90;;;;;;5010083;28;19971;-75
2022/01/12 00:50:33;;;;;;;;;;;2.50;99.90;;;;;;5027383;28;19917;-75
2022/01/12 00:52:58;;;;;;;;;;;2.50;99.90;;;;;;5009953;28;19909;-75
2022/01/12 00:55:24;;;;;;;;;;;2.40;99.90;;;;;;5027336;28;19919;-75
2022/01/12 00:57:51;;;;;;;;;;;2.50;99.90;;;;;;5009692;28;19909;-75
2022/01/12 01:00:20;;;;;;;;;;;2.40;99.90;;;;;;5026927;28;19963;-75
2022/01/12 01:02:46;;;;;;;;;;;2.40;99.90;;;;;;4993537;28;19909;-76
2022/01/12 01:05:12;;;;;;;;;;;2.40;99.90;;;;;;5026056;28;19916;-75
2022/01/12 01:07:38;;;;;;;;;;;2.50;99.90;;;;;;5009520;28;19962;-76
2022/01/12 01:10:07;;;;;;;;;;;2.40;99.90;;;;;;5009458;28;19909;-75
2022/01/12 01:12:35;;;;;;;;;;;2.40;99.90;;;;;;5028331;28;19909;-75
2022/01/12 01:15:07;;;;;;;;;;;2.40;99.90;;;;;;5027252;28;19921;-75
2022/01/12 01:25:35;;;;;;;;;;;2.40;99.90;;;;;;5009329;28;19909;-75
2022/01/12 01:28:04;;;;;;;;;;;2.30;99.90;;;;;;5026676;28;19928;-75
2022/01/12 01:30:30;;;;;;;;;;;2.30;99.90;;;;;;5008981;28;19949;-75
2022/01/12 01:33:03;;;;;;;;;;;2.40;99.90;;;;;;5008939;28;19924;-75
2022/01/12 01:35:30;;;;;;;;;;;2.30;99.90;;;;;;5009128;28;20316;-75
2022/01/12 01:37:58;;;;;;;;;;;2.30;99.90;;;;;;5009006;28;19921;-75
2022/01/12 01:40:24;;;;;;;;;;;2.40;99.90;;;;;;5008819;28;19980;-75
2022/01/12 01:53:38;;;;;;;;;;;2.30;99.90;;;;;;5008793;28;19909;-75
2022/01/12 01:56:05;;;;;;;;;;;2.30;99.90;;;;;;5009148;28;19987;-76
2022/01/12 01:58:31;;;;;;;;;;;2.30;99.90;;;;;;5008837;28;19971;-76
2022/01/12 02:00:57;;;;;;;;;;;2.30;99.90;;;;;;5026260;28;19910;-75
2022/01/12 02:03:29;;;;;;;;;;;2.30;99.90;;;;;;5008601;28;19952;-75
2022/01/12 02:05:59;;;;;;;;;;;2.30;99.90;;;;;;5008862;28;19977;-75
2022/01/12 02:08:25;;;;;;;;;;;2.30;99.90;;;;;;4992355;28;19910;-75
2022/01/12 02:11:02;;;;;;;;;;;2.30;99.90;;;;;;5008825;28;19913;-75
2022/01/12 02:13:28;;;;;;;;;;;2.30;99.90;;;;;;5008562;28;19921;-75
2022/01/12 02:15:55;;;;;;;;;;;2.30;99.90;;;;;;4992468;28;19959;-75
2022/01/12 02:18:37;;;;;;;;;;;2.30;99.90;;;;;;5008459;28;19909;-75
2022/01/12 02:35:43;;;;;;;;;;;2.30;99.90;;;;;;4965275;29;19922;-75
2022/01/12 02:40:54;;;;;;;;;;;2.30;99.90;;;;;;4965101;29;19940;-76
2022/01/12 02:53:48;;;;;;;;;;;2.30;99.90;;;;;;4987800;28;19977;-75
2022/01/12 02:56:17;;;;;;;;;;;2.30;99.90;;;;;;4956031;28;20321;-75
2022/01/12 02:58:44;;;;;;;;;;;2.30;99.90;;;;;;4955781;28;19917;-75
2022/01/12 03:01:39;;;;;;;;;;;2.30;99.90;;;;;;4971628;28;20390;-76
2022/01/12 03:04:05;;;;;;;;;;;2.30;99.90;;;;;;4971565;28;19917;-75
2022/01/12 03:06:35;;;;;;;;;;;2.30;99.90;;;;;;4990182;28;19948;-75
2022/01/12 03:09:02;;;;;;;;;;;2.30;99.90;;;;;;5029279;28;19956;-75
2022/01/12 03:11:28;;;;;;;;;;;2.30;99.90;;;;;;5011772;28;19909;-75
2022/01/12 03:13:58;;;;;;;;;;;2.30;99.90;;;;;;5011777;28;19909;-75
2022/01/12 03:16:26;;;;;;;;;;;2.30;99.90;;;;;;5011660;28;19940;-75
2022/01/12 03:18:55;;;;;;;;;;;2.30;99.90;;;;;;4995419;28;19911;-76
2022/01/12 03:21:22;;;;;;;;;;;2.30;99.90;;;;;;5011733;28;20117;-75
2022/01/12 03:23:49;;;;;;;;;;;2.30;99.90;;;;;;5011459;28;19916;-75
2022/01/12 03:26:14;;;;;;;;;;;2.30;99.90;;;;;;5011508;28;19910;-75
2022/01/12 03:28:42;;;;;;;;;;;2.30;99.90;;;;;;5018490;28;20391;-76
2022/01/12 03:33:52;;;;;;;;;;;2.30;99.90;;;;;;5011270;28;19909;-75
2022/01/12 03:39:04;;;;;;;;;;;2.30;99.90;;;;;;5011251;28;19916;-75
2022/01/12 03:41:32;;;;;;;;;;;2.30;99.90;;;;;;5027703;28;19968;-75
2022/01/12 03:43:59;;;;;;;;;;;2.30;99.90;;;;;;4995111;28;19909;-75
2022/01/12 03:46:27;;;;;;;;;;;2.30;99.90;;;;;;5029001;28;19909;-75
2022/01/12 03:48:53;;;;;;;;;;;2.40;99.90;;;;;;5028511;28;19913;-75
2022/01/12 03:51:19;;;;;;;;;;;2.30;99.90;;;;;;5028871;28;19964;-75
2022/01/12 03:53:44;;;;;;;;;;;2.40;99.90;;;;;;5011085;28;19913;-75
2022/01/12 03:56:10;;;;;;;;;;;2.40;99.90;;;;;;5011212;28;19917;-75
2022/01/12 03:58:35;;;;;;;;;;;2.30;99.90;;;;;;5028538;28;19910;-75
2022/01/12 04:01:01;;;;;;;;;;;2.30;99.90;;;;;;5027283;28;19920;-75
2022/01/12 04:03:28;;;;;;;;;;;2.40;99.90;;;;;;5010869;28;19948;-75
2022/01/12 04:08:38;;;;;;;;;;;2.40;99.90;;;;;;5010729;28;20281;-75
2022/01/12 04:11:04;;;;;;;;;;;2.40;99.90;;;;;;5028455;28;19916;-75
2022/01/12 04:13:32;;;;;;;;;;;2.40;99.90;;;;;;5028343;28;19913;-75
2022/01/12 04:16:08;;;;;;;;;;;2.40;99.90;;;;;;5010708;28;20169;-75
2022/01/12 04:18:34;;;;;;;;;;;2.40;99.90;;;;;;5010665;28;19933;-76
2022/01/12 04:21:03;;;;;;;;;;;2.40;99.90;;;;;;5010410;28;20372;-75
2022/01/12 04:23:29;;;;;;;;;;;2.50;99.90;;;;;;4994319;28;19928;-76
2022/01/12 04:25:56;;;;;;;;;;;2.40;99.90;;;;;;5010476;28;19916;-75
2022/01/12 04:28:23;;;;;;;;;;;2.40;99.90;;;;;;5027913;28;19973;-75
2022/01/12 04:30:49;;;;;;;;;;;2.50;99.90;;;;;;5009823;28;19909;-75
2022/01/12 04:33:16;;;;;;;;;;;2.50;99.90;;;;;;5010220;28;19915;-75
2022/01/12 04:35:52;;;;;;;;;;;2.50;99.90;;;;;;5027653;28;19949;-75
2022/01/12 04:38:19;;;;;;;;;;;2.50;99.90;;;;;;5010136;28;19976;-75
2022/01/12 04:40:45;;;;;;;;;;;2.50;99.90;;;;;;5009970;28;19977;-75
2022/01/12 04:43:12;;;;;;;;;;;2.50;99.90;;;;;;5009862;28;19914;-75
2022/01/12 04:45:58;;;;;;;;;;;2.50;99.90;;;;;;5010009;28;19909;-76
2022/01/12 04:50:52;;;;;;;;;;;2.50;99.90;;;;;;5009527;28;19909;-75
2022/01/12 04:53:19;;;;;;;;;;;2.60;99.90;;;;;;5009860;28;19910;-75
2022/01/12 04:55:45;;;;;;;;;;;2.60;99.90;;;;;;5009612;28;20270;-76
2022/01/12 04:58:11;;;;;;;;;;;2.50;99.90;;;;;;5009975;28;19909;-77
2022/01/12 05:00:37;;;;;;;;;;;2.50;99.90;;;;;;4993249;28;19916;-76
2022/01/12 05:13:45;;;;;;;;;;;2.60;99.90;;;;;;5009549;28;19913;-77
2022/01/12 05:16:12;;;;;;;;;;;2.60;99.90;;;;;;4993063;28;19956;-81
2022/01/12 05:18:39;;;;;;;;;;;2.60;99.90;;;;;;4993420;28;19905;-84
2022/01/12 05:21:05;;;;;;;;;;;2.60;99.90;;;;;;4992494;28;19913;-80
2022/01/12 05:23:31;;;;;;;;;;;2.60;99.90;;;;;;4987355;28;19906;-80
2022/01/12 05:25:57;;;;;;;;;;;2.60;99.90;;;;;;4989868;28;19909;-82
2022/01/12 05:28:23;;;;;;;;;;;2.60;99.90;;;;;;4997768;28;19917;-76
2022/01/12 05:30:49;;;;;;;;;;;2.60;99.90;;;;;;5008972;28;19909;-76
2022/01/12 05:33:16;;;;;;;;;;;2.60;99.90;;;;;;5009414;28;19916;-78
2022/01/12 05:35:43;;;;;;;;;;;2.70;99.90;;;;;;5009030;28;19965;-78
2022/01/12 05:38:11;;;;;;;;;;;2.70;99.90;;;;;;5008543;28;19917;-77
2022/01/12 05:40:36;;;;;;;;;;;2.60;99.90;;;;;;5008972;28;20009;-77
2022/01/12 05:43:04;;;;;;;;;;;2.60;99.90;;;;;;5009108;28;19909;-80
2022/01/12 05:45:32;;;;;;;;;;;2.70;99.90;;;;;;5008911;28;19915;-79
2022/01/12 05:50:27;;;;;;;;;;;2.60;99.90;;;;;;5008632;28;19909;-77
2022/01/12 05:52:54;;;;;;;;;;;2.60;99.90;;;;;;4992286;28;20273;-82
2022/01/12 05:55:20;;;;;;;;;;;2.70;99.90;;;;;;4992659;28;19917;-85
2022/01/12 05:57:48;;;;;;;;;;;2.70;99.90;;;;;;5008839;28;19932;-83
2022/01/12 06:00:14;;;;;;;;;;;2.70;99.90;;;;;;5008621;28;20281;-88
2022/01/12 06:02:42;;;;;;;;;;;2.70;99.90;;;;;;5009102;28;20085;-88
2022/01/12 06:05:14;;;;;;;;;;;2.70;99.90;;;;;;5008969;28;19913;-83
2022/01/12 06:07:41;;;;;;;;;;;2.70;99.90;;;;;;5008638;28;19909;-85
2022/01/12 06:10:07;;;;;;;;;;;2.70;99.90;;;;;;5008976;28;19916;-87
2022/01/12 06:12:33;;;;;;;;;;;2.70;99.90;;;;;;5026618;28;19952;-87
2022/01/12 06:14:59;;;;;;;;;;;2.70;99.90;;;;;;5008806;28;19913;-80
2022/01/12 06:17:25;;;;;;;;;;;2.70;99.90;;;;;;5008458;28;19920;-82
2022/01/12 06:19:50;;;;;;;;;;;2.80;99.90;;;;;;5008410;28;19909;-86
2022/01/12 06:22:28;;;;;;;;;;;2.70;99.90;;;;;;5008268;28;19909;-87
2022/01/12 06:24:54;;;;;;;;;;;2.70;99.90;;;;;;5008636;28;20325;-84
2022/01/12 06:27:21;;;;;;;;;;;2.70;99.90;;;;;;5027370;28;20004;-84
2022/01/12 06:30:03;;;;;;;;;;;2.80;99.90;;;;;;5030176;28;19910;-79
2022/01/12 06:32:35;;;;;;;;;;;2.80;99.90;;;;;;5018350;23;19922;-80
2022/01/12 06:35:01;;;;;;;;;;;2.80;99.90;;;;;;4977271;28;19924;-84
2022/01/12 06:37:28;;;;;;;;;;;2.80;99.90;;;;;;4977018;28;20318;-81
2022/01/12 06:39:53;;;;;;;;;;;2.80;99.90;;;;;;4993322;28;20008;-80
2022/01/12 06:42:19;;;;;;;;;;;2.80;99.90;;;;;;4993313;28;20042;-82
2022/01/12 06:44:47;;;;;;;;;;;2.80;99.90;;;;;;4993320;28;19977;-81
2022/01/12 06:47:13;;;;;;;;;;;2.80;99.90;;;;;;4993165;28;19914;-89
2022/01/12 06:49:38;;;;;;;;;;;2.80;99.90;;;;;;5009400;28;19916;-81
2022/01/12 06:52:05;;;;;;;;;;;2.80;99.90;;;;;;5008965;28;19948;-78
2022/01/12 06:54:30;;;;;;;;;;;2.80;99.90;;;;;;5009313;28;20473;-77
2022/01/12 06:56:56;;;;;;;;;;;2.80;99.90;;;;;;4992940;28;19917;-80
2022/01/12 06:59:22;;;;;;;;;;;2.80;99.90;;;;;;5010305;28;19909;-84
2022/01/12 07:01:51;;;;;;;;;;;2.80;99.90;;;;;;4992633;28;19955;-78
2022/01/12 07:04:25;;;;;;;;;;;2.80;99.90;;;;;;4992967;28;19909;-82
2022/01/12 07:06:50;;;;;;;;;;;2.80;99.90;;;;;;4992390;28;19910;-83
2022/01/12 07:09:16;;;;;;;;;;;2.80;99.90;;;;;;5008833;28;19916;-80
2022/01/12 07:11:51;;;;;;;;;;;2.90;99.90;;;;;;4992527;28;19910;-82
2022/01/12 07:14:23;;;;;;;;;;;2.80;99.90;;;;;;4977171;28;19995;-79
2022/01/12 07:16:48;;;;;;;;;;;2.80;99.90;;;;;;4992017;28;19917;-80
2022/01/12 07:19:14;;;;;;;;;;;2.90;99.90;;;;;;4992193;28;19917;-77
2022/01/12 07:21:41;;;;;;;;;;;2.90;99.90;;;;;;4992304;28;20328;-82
2022/01/12 07:24:06;;;;;;;;;;;2.90;99.90;;;;;;4992578;28;19913;-80
2022/01/12 07:26:33;;;;;;;;;;;2.80;99.90;;;;;;4992220;28;19913;-80
2022/01/12 07:28:58;;;;;;;;;;;2.90;99.90;;;;;;4992315;28;20004;-82
2022/01/12 07:31:24;;;;;;;;;;;2.90;99.90;;;;;;4980646;28;20428;-77
2022/01/12 07:33:54;;;;;;;;;;;2.90;99.90;;;;;;5029285;28;19956;-83
2022/01/12 07:36:20;;;;;;;;;;;2.90;99.90;;;;;;5029314;28;19917;-80
2022/01/12 07:38:48;;;;;;;;;;;2.90;99.90;;;;;;5028535;28;20378;-80
2022/01/12 07:41:13;;;;;;;;;;;2.90;99.90;;;;;;5029183;28;19910;-87
2022/01/12 07:43:39;;;;;;;;;;;2.90;99.90;;;;;;5028954;28;20369;-79
2022/01/12 07:46:06;;;;;;;;;;;2.90;99.90;;;;;;5011659;28;19956;-84
2022/01/12 07:48:31;;;;;;;;;;;2.90;99.90;;;;;;5028924;28;19909;-82
2022/01/12 07:50:57;;;;;;;;;;;3.00;99.90;;;;;;5011768;28;19909;-87
2022/01/12 07:53:22;;;;;;;;;;;3.00;99.90;;;;;;5011214;28;19913;-83
2022/01/12 07:55:48;;;;;;;;;;;3.00;99.90;;;;;;5028836;28;19924;-81
2022/01/12 07:58:13;;;;;;;;;;;3.00;99.90;;;;;;5028776;28;19913;-79
2022/01/12 08:00:39;;;;;;;;;;;3.00;99.90;;;;;;5028661;28;19909;-81
2022/01/12 08:03:04;;;;;;;;;;;3.00;99.90;;;;;;5011323;28;19910;-83
2022/01/12 08:05:30;;;;;;;;;;;3.00;99.90;;;;;;5011285;28;19925;-79
2022/01/12 08:07:55;;;;;;;;;;;3.10;99.90;;;;;;4994886;28;19916;-82
2022/01/12 08:10:21;;;;;;;;;;;3.10;99.90;;;;;;5010604;28;19909;-80
2022/01/12 08:12:47;;;;;;;;;;;3.10;99.90;;;;;;4994279;28;20432;-78
2022/01/12 08:15:12;;;;;;;;;;;3.10;99.90;;;;;;4994231;28;19928;-80
2022/01/12 08:17:38;;;;;;;;;;;3.10;99.90;;;;;;4994109;28;19909;-79
2022/01/12 08:20:05;;;;;;;;;;;3.10;99.90;;;;;;5010135;28;20000;-83
2022/01/12 08:22:30;;;;;;;;;;;3.10;99.90;;;;;;4993931;28;19909;-80
2022/01/12 08:24:56;;;;;;;;;;;3.10;99.90;;;;;;5011263;28;19963;-82
2022/01/12 08:27:22;;;;;;;;;;;3.10;99.90;;;;;;5010152;28;19937;-78
2022/01/12 08:29:49;;;;;;;;;;;3.10;99.90;;;;;;4993543;28;19988;-79
2022/01/12 08:32:15;;;;;;;;;;;3.10;99.90;;;;;;5009867;28;19917;-80
2022/01/12 08:34:41;;;;;;;;;;;3.10;99.90;;;;;;5009890;28;19960;-84
2022/01/12 08:37:07;;;;;;;;;;;3.20;99.90;;;;;;5009926;28;19910;-81
2022/01/12 08:39:32;;;;;;;;;;;3.20;99.90;;;;;;5009492;28;19937;-83
2022/01/12 08:41:58;;;;;;;;;;;3.20;99.90;;;;;;5006562;28;19917;-81
2022/01/12 08:44:23;;;;;;;;;;;3.20;99.90;;;;;;5007918;28;19988;-83
2022/01/12 08:46:49;;;;;;;;;;;3.30;99.90;;;;;;5022899;28;19909;-84
2022/01/12 08:49:14;;;;;;;;;;;3.30;99.90;;;;;;5006998;28;19917;-78
2022/01/12 08:51:40;;;;;;;;;;;3.30;99.90;;;;;;4989782;28;20374;-85
2022/01/12 08:54:05;;;;;;;;;;;3.30;99.90;;;;;;5006396;28;19910;-83
2022/01/12 08:56:31;;;;;;;;;;;3.40;99.90;;;;;;5022623;28;19917;-81
2022/01/12 08:58:57;;;;;;;;;;;3.40;99.90;;;;;;5007255;28;19910;-80
2022/01/12 09:01:23;;;;;;;;;;;3.40;99.90;;;;;;5022485;28;19932;-79
2022/01/12 09:03:48;;;;;;;;;;;3.40;99.90;;;;;;5007294;28;19910;-84
2022/01/12 09:06:14;;;;;;;;;;;3.40;99.90;;;;;;5007252;28;19909;-80
2022/01/12 09:08:40;;;;;;;;;;;3.40;99.90;;;;;;5006976;28;19956;-79
2022/01/12 09:11:06;;;;;;;;;;;3.40;99.90;;;;;;5005806;28;19982;-79
2022/01/12 09:13:32;;;;;;;;;;;3.40;99.90;;;;;;5005974;28;20027;-84
2022/01/12 09:15:57;;;;;;;;;;;3.40;99.90;;;;;;5006085;28;20267;-78
2022/01/12 09:18:23;;;;;;;;;;;3.50;99.90;;;;;;5005724;28;19917;-83
2022/01/12 09:20:53;;;;;;;;;;;3.40;99.90;;;;;;4989499;28;19910;-81
2022/01/12 09:23:19;;;;;;;;;;;3.40;99.90;;;;;;5006897;28;19910;-83
2022/01/12 09:25:44;;;;;;;;;;;3.40;99.90;;;;;;5006994;28;19945;-84
2022/01/12 09:28:10;;;;;;;;;;;3.50;99.90;;;;;;5012742;28;19957;-78
2022/01/12 09:30:35;;;;;;;;;;;3.50;99.90;;;;;;5026257;28;19914;-80
2022/01/12 09:33:01;;;;;;;;;;;3.50;99.90;;;;;;5026420;28;19989;-80
2022/01/12 09:35:28;;;;;;;;;;;3.60;99.90;;;;;;5009013;28;19992;-80
2022/01/12 09:37:54;;;;;;;;;;;3.60;99.90;;;;;;5008531;28;19952;-80
2022/01/12 09:40:20;;;;;;;;;;;3.60;99.90;;;;;;5026210;28;19940;-81
2022/01/12 09:42:47;;;;;;;;;;;3.60;99.90;;;;;;5004971;28;19910;-82
2022/01/12 09:45:15;;;;;;;;;;;3.70;99.90;;;;;;4989170;28;19910;-77
2022/01/12 09:47:42;;;;;;;;;;;3.70;99.90;;;;;;5005589;28;19910;-79
2022/01/12 09:50:09;;;;;;;;;;;3.70;99.90;;;;;;5005207;28;19921;-80
2022/01/12 09:52:34;;;;;;;;;;;3.80;99.90;;;;;;5006367;28;19910;-77
2022/01/12 09:55:00;;;;;;;;;;;3.70;99.90;;;;;;5004816;28;20275;-77
2022/01/12 09:57:25;;;;;;;;;;;3.60;99.90;;;;;;5006210;28;19984;-75
2022/01/12 09:59:51;;;;;;;;;;;3.70;99.90;;;;;;4988322;28;19916;-79
2022/01/12 10:02:18;;;;;;;;;;;3.80;99.90;;;;;;5004768;28;19909;-75
2022/01/12 10:04:43;;;;;;;;;;;3.90;99.90;;;;;;5004955;28;19913;-78
2022/01/12 10:07:11;;;;;;;;;;;3.90;99.90;;;;;;5006363;28;19920;-85
2022/01/12 10:09:44;;;;;;;;;;;3.90;99.90;;;;;;5005900;28;20008;-83
2022/01/12 10:12:14;;;;;;;;;;;3.90;99.90;;;;;;5004891;28;19909;-82
2022/01/12 10:14:44;;;;;;;;;;;3.90;99.90;;;;;;5004909;28;20012;-78
2022/01/12 10:17:10;;;;;;;;;;;3.90;99.90;;;;;;5005107;28;19910;-78
2022/01/12 10:19:35;;;;;;;;;;;3.90;99.90;;;;;;5004990;28;19909;-77
2022/01/12 10:22:03;;;;;;;;;;;3.80;99.90;;;;;;5005020;28;20436;-76
2022/01/12 10:24:29;;;;;;;;;;;3.90;99.90;;;;;;5004827;28;19914;-77
2022/01/12 10:26:55;;;;;;;;;;;3.90;99.90;;;;;;5021158;28;19933;-76
2022/01/12 10:29:23;;;;;;;;;;;3.90;99.90;;;;;;4991520;28;19909;-80
2022/01/12 10:31:59;;;;;;;;;;;3.90;99.90;;;;;;5025160;28;19917;-77
2022/01/12 10:34:28;;;;;;;;;;;4.00;99.90;;;;;;5024384;28;19932;-79
2022/01/12 10:36:55;;;;;;;;;;;4.10;99.90;;;;;;5025609;28;19997;-81
2022/01/12 10:39:23;;;;;;;;;;;4.10;99.90;;;;;;5007851;28;19910;-77
2022/01/12 10:42:00;;;;;;;;;;;4.20;99.90;;;;;;5025493;28;20305;-83
2022/01/12 10:44:30;;;;;;;;;;;4.20;99.90;;;;;;5025550;28;19981;-78
2022/01/12 10:47:11;;;;;;;;;;;4.20;99.90;;;;;;5025594;28;19910;-81
2022/01/12 10:49:38;;;;;;;;;;;4.30;99.90;;;;;;5025455;28;20377;-83
2022/01/12 10:52:13;;;;;;;;;;;4.30;99.90;;;;;;5007822;28;19920;-80
2022/01/12 10:54:52;;;;;;;;;;;4.30;99.90;;;;;;5007902;28;19910;-79
2022/01/12 10:57:20;;;;;;;;;;;4.10;99.90;;;;;;5025521;28;19984;-80
2022/01/12 11:00:04;;;;;;;;;;;4.00;99.90;;;;;;5007447;28;19921;-83
2022/01/12 11:02:30;;;;;;;;;;;4.10;99.90;;;;;;5025527;28;19949;-78
2022/01/12 11:04:57;;;;;;;;;;;4.10;99.90;;;;;;5025385;28;19909;-79
2022/01/12 11:07:23;;;;;;;;;;;4.00;99.90;;;;;;5007859;28;19944;-84
2022/01/12 11:09:50;;;;;;;;;;;4.00;99.90;;;;;;5025118;28;19909;-84
2022/01/12 11:12:15;;;;;;;;;;;4.20;99.90;;;;;;5025518;28;19916;-78
2022/01/12 11:14:41;;;;;;;;;;;4.20;99.90;;;;;;5028462;28;19909;-80
2022/01/12 11:17:07;;;;;;;;;;;4.10;99.90;;;;;;5028992;28;19918;-76
2022/01/12 11:19:32;;;;;;;;;;;4.10;99.90;;;;;;5011191;28;19909;-80
2022/01/12 11:22:21;;;;;;;;;;;4.10;99.90;;;;;;5029003;28;19910;-77
2022/01/12 11:24:46;;;;;;;;;;;4.10;99.90;;;;;;4995087;28;19941;-79
2022/01/12 11:27:19;;;;;;;;;;;4.20;99.90;;;;;;5011322;28;19909;-80
2022/01/12 11:29:44;;;;;;;;;;;4.20;99.90;;;;;;5010585;28;19957;-78
2022/01/12 11:32:13;;;;;;;;;;;4.10;99.90;;;;;;5028220;28;19917;-79
2022/01/12 11:34:39;;;;;;;;;;;4.10;99.90;;;;;;5028783;28;19916;-82
2022/01/12 11:37:16;;;;;;;;;;;4.20;99.90;;;;;;5028513;28;19917;-81
2022/01/12 11:39:42;;;;;;;;;;;4.20;99.90;;;;;;5010589;28;19916;-77
2022/01/12 11:42:08;;;;;;;;;;;4.20;99.90;;;;;;5028148;28;19909;-76
2022/01/12 11:44:34;;;;;;;;;;;4.20;99.90;;;;;;5028670;28;19913;-77
2022/01/12 11:47:02;;;;;;;;;;;4.20;99.90;;;;;;4994289;28;20357;-81
2022/01/12 11:49:35;;;;;;;;;;;4.10;99.90;;;;;;5010603;28;19909;-79
2022/01/12 11:52:12;;;;;;;;;;;4.10;99.90;;;;;;4994484;28;20419;-77
2022/01/12 11:54:38;;;;;;;;;;;4.20;99.90;;;;;;4994496;28;19945;-77
2022/01/12 11:57:05;;;;;;;;;;;4.40;99.90;;;;;;5010395;28;19917;-77
2022/01/12 11:59:48;;;;;;;;;;;4.30;99.90;;;;;;5010353;28;19917;-79
2022/01/12 12:02:17;;;;;;;;;;;4.20;99.90;;;;;;4994086;28;19960;-79
2022/01/12 12:04:55;;;;;;;;;;;4.30;99.90;;;;;;5010443;28;19909;-78
2022/01/12 12:07:23;;;;;;;;;;;4.30;99.90;;;;;;5027998;28;19956;-79
2022/01/12 12:09:53;;;;;;;;;;;4.50;99.90;;;;;;5027786;28;19973;-81
2022/01/12 12:12:19;;;;;;;;;;;4.50;99.90;;;;;;5028138;28;19992;-82
2022/01/12 12:14:46;;;;;;;;;;;4.70;99.90;;;;;;5010168;28;19963;-78
2022/01/12 12:17:12;;;;;;;;;;;4.70;99.90;;;;;;5027773;28;19977;-80
2022/01/12 12:19:38;;;;;;;;;;;4.60;99.90;;;;;;5027789;28;19918;-84
2022/01/12 12:22:08;;;;;;;;;;;4.50;99.90;;;;;;5027656;28;19943;-78
2022/01/12 12:24:33;;;;;;;;;;;4.50;99.90;;;;;;5008641;28;19921;-79
2022/01/12 12:26:59;;;;;;;;;;;4.50;99.90;;;;;;5010032;28;19910;-79
2022/01/12 12:29:26;;;;;;;;;;;4.60;99.90;;;;;;4990167;28;19916;-77
2022/01/12 12:31:53;;;;;;;;;;;4.40;99.90;;;;;;4989762;28;19945;-79
2022/01/12 12:34:20;;;;;;;;;;;4.40;99.90;;;;;;5006529;28;19909;-80
2022/01/12 12:36:46;;;;;;;;;;;4.60;99.90;;;;;;4990135;28;19945;-77
2022/01/12 12:39:14;;;;;;;;;;;4.70;99.90;;;;;;5007663;28;19916;-79
2022/01/12 12:41:42;;;;;;;;;;;4.70;99.90;;;;;;5010517;28;19909;-76
2022/01/12 12:44:19;;;;;;;;;;;4.80;99.90;;;;;;5027116;28;19909;-78
2022/01/12 12:46:44;;;;;;;;;;;4.70;99.90;;;;;;4993144;28;19910;-80
2022/01/12 12:49:10;;;;;;;;;;;4.80;99.90;;;;;;5009445;28;19913;-78
2022/01/12 12:51:35;;;;;;;;;;;4.90;99.90;;;;;;5026931;28;19909;-80
2022/01/12 12:54:01;;;;;;;;;;;4.70;99.90;;;;;;5027127;28;19909;-76
2022/01/12 12:56:28;;;;;;;;;;;4.60;99.90;;;;;;5027123;28;20289;-77
2022/01/12 12:58:55;;;;;;;;;;;4.60;99.90;;;;;;5009202;28;19973;-77
2022/01/12 13:01:22;;;;;;;;;;;4.60;99.90;;;;;;5009073;28;19909;-78
2022/01/12 13:03:48;;;;;;;;;;;4.80;99.90;;;;;;5026981;28;20444;-76
2022/01/12 13:06:28;;;;;;;;;;;4.70;99.90;;;;;;5027026;28;20396;-78
2022/01/12 13:08:54;;;;;;;;;;;4.70;99.90;;;;;;5026541;28;20372;-77
2022/01/12 13:11:26;;;;;;;;;;;4.60;99.90;;;;;;5026857;28;19909;-78
2022/01/12 13:13:56;;;;;;;;;;;4.50;99.90;;;;;;5026881;28;19981;-78
2022/01/12 13:16:24;;;;;;;;;;;4.40;99.90;;;;;;5026485;28;20282;-85
2022/01/12 13:18:49;;;;;;;;;;;4.40;99.90;;;;;;5026638;28;19932;-77
2022/01/12 13:21:16;;;;;;;;;;;4.30;99.90;;;;;;5026540;28;19910;-78
2022/01/12 13:23:45;;;;;;;;;;;4.40;99.90;;;;;;5008810;28;19945;-76
2022/01/12 13:26:12;;;;;;;;;;;4.40;99.90;;;;;;5026640;28;19916;-76
2022/01/12 13:28:38;;;;;;;;;;;4.40;99.90;;;;;;5026439;28;19920;-77
2022/01/12 13:31:05;;;;;;;;;;;4.50;99.90;;;;;;5026098;28;20357;-78
2022/01/12 13:33:32;;;;;;;;;;;4.50;99.90;;;;;;5012602;28;19955;-78
2022/01/12 13:35:58;;;;;;;;;;;4.60;99.90;;;;;;5004803;28;19960;-75
2022/01/12 13:38:26;;;;;;;;;;;4.40;99.90;;;;;;4988571;28;19957;-78
2022/01/12 13:40:55;;;;;;;;;;;4.50;99.90;;;;;;5004825;28;19910;-78
2022/01/12 13:43:21;;;;;;;;;;;4.40;99.90;;;;;;5001978;28;19909;-79
2022/01/12 13:45:49;;;;;;;;;;;4.50;99.90;;;;;;5006439;28;20111;-78
2022/01/12 13:48:17;;;;;;;;;;;4.50;99.90;;;;;;4988012;28;19910;-76
2022/01/12 13:50:45;;;;;;;;;;;4.50;99.90;;;;;;5006158;28;19921;-76
2022/01/12 13:53:10;;;;;;;;;;;4.50;99.90;;;;;;5005973;28;19976;-76
2022/01/12 13:55:36;;;;;;;;;;;4.50;99.90;;;;;;5006140;28;19918;-75
2022/01/12 13:58:06;;;;;;;;;;;4.30;99.90;;;;;;4989643;28;19910;-77
2022/01/12 14:00:33;;;;;;;;;;;4.30;99.90;;;;;;4990159;28;19897;-75
2022/01/12 14:02:59;;;;;;;;;;;4.10;99.90;;;;;;5007202;28;19909;-76
2022/01/12 14:05:28;;;;;;;;;;;4.10;99.90;;;;;;5006010;28;19982;-76
2022/01/12 14:08:01;;;;;;;;;;;4.00;99.90;;;;;;5005816;28;19913;-77
2022/01/12 14:10:29;;;;;;;;;;;4.00;99.90;;;;;;5005785;28;20473;-77
2022/01/12 14:12:55;;;;;;;;;;;4.00;99.90;;;;;;5005736;28;19963;-79
2022/01/12 14:15:22;;;;;;;;;;;4.10;99.90;;;;;;5006220;28;20021;-81
2022/01/12 14:17:48;;;;;;;;;;;4.10;99.90;;;;;;4980258;28;19918;-89
2022/01/12 14:20:22;;;;;;;;;;;4.00;99.90;;;;;;5004217;28;19913;-80
2022/01/12 14:22:54;;;;;;;;;;;4.10;99.90;;;;;;5007861;28;19909;-79
2022/01/12 14:25:22;;;;;;;;;;;4.10;99.90;;;;;;4991748;28;19909;-83
2022/01/12 14:27:49;;;;;;;;;;;4.10;99.90;;;;;;4991071;28;19948;-82
2022/01/12 14:30:16;;;;;;;;;;;4.00;99.90;;;;;;5007545;28;19976;-82
2022/01/12 14:32:42;;;;;;;;;;;3.80;99.90;;;;;;5007260;28;19917;-78
2022/01/12 14:35:09;;;;;;;;;;;3.70;99.90;;;;;;5007827;28;19910;-81
2022/01/12 14:37:35;;;;;;;;;;;3.60;99.90;;;;;;5025505;28;19997;-76
2022/01/12 14:40:01;;;;;;;;;;;3.80;99.90;;;;;;5025333;28;19909;-82
2022/01/12 14:42:27;;;;;;;;;;;3.90;99.90;;;;;;5025127;28;19965;-81
2022/01/12 14:44:53;;;;;;;;;;;3.90;99.90;;;;;;5025120;28;19917;-80
2022/01/12 14:47:18;;;;;;;;;;;3.90;99.90;;;;;;5024790;28;19909;-80
2022/01/12 14:49:44;;;;;;;;;;;3.80;99.90;;;;;;5028737;28;20206;-78
2022/01/12 14:52:09;;;;;;;;;;;3.80;99.90;;;;;;5011895;28;20024;-80
2022/01/12 14:54:35;;;;;;;;;;;3.70;99.90;;;;;;5029487;28;19909;-84
2022/01/12 14:57:01;;;;;;;;;;;3.70;99.90;;;;;;5029366;28;19921;-80
2022/01/12 14:59:26;;;;;;;;;;;3.70;99.90;;;;;;5028900;28;19920;-86
2022/01/12 15:01:52;;;;;;;;;;;3.70;99.90;;;;;;5011177;28;19920;-79
2022/01/12 15:04:17;;;;;;;;;;;3.70;99.90;;;;;;5028986;28;19913;-81
2022/01/12 15:06:43;;;;;;;;;;;3.70;99.90;;;;;;5011621;28;20377;-83
2022/01/12 15:09:09;;;;;;;;;;;3.70;99.90;;;;;;5028928;28;19906;-81
2022/01/12 15:11:40;;;;;;;;;;;3.60;99.90;;;;;;5029126;28;19977;-79
2022/01/12 15:14:23;;;;;;;;;;;3.70;99.90;;;;;;5029029;28;19913;-82
2022/01/12 15:16:49;;;;;;;;;;;3.60;99.90;;;;;;5028653;28;19928;-85
2022/01/12 15:19:14;;;;;;;;;;;3.70;99.90;;;;;;5028671;28;19909;-78
2022/01/12 15:21:42;;;;;;;;;;;3.50;99.90;;;;;;5028839;28;19916;-84
2022/01/12 15:24:07;;;;;;;;;;;3.20;99.90;;;;;;5028986;28;19909;-77
2022/01/12 15:26:33;;;;;;;;;;;3.20;99.90;;;;;;5011750;28;19917;-78
2022/01/12 15:28:58;;;;;;;;;;;3.20;99.90;;;;;;5008366;28;19910;-80
2022/01/12 15:31:24;;;;;;;;;;;3.30;99.90;;;;;;5007860;28;19914;-80
2022/01/12 15:33:49;;;;;;;;;;;3.40;99.90;;;;;;4991879;28;19942;-76
2022/01/12 15:36:15;;;;;;;;;;;3.40;99.90;;;;;;4988348;28;19921;-77
2022/01/12 15:38:40;;;;;;;;;;;3.30;99.90;;;;;;5023061;28;19909;-76
2022/01/12 15:41:06;;;;;;;;;;;3.30;99.90;;;;;;4993196;28;19941;-77
2022/01/12 15:43:31;;;;;;;;;;;3.30;99.90;;;;;;5008918;28;19949;-77
2022/01/12 15:45:57;;;;;;;;;;;3.30;99.90;;;;;;5027083;28;19910;-76
2022/01/12 15:48:22;;;;;;;;;;;3.30;99.90;;;;;;5027270;28;19932;-76
2022/01/12 15:50:48;;;;;;;;;;;3.40;99.90;;;;;;5027599;28;19913;-76